sensor_id;sensor_type;location;lat;lon;timestamp;P1;P2;P0
45788;PMS7003;31492;54.856;26.318;2022-12-07T01:14:14;24.6;17.8;12.4
45788;PMS7003;31492;54.856;26.318;2022-12-07T01:19:36;18;15;9.5
45788;PMS7003;31492;54.856;26.318;2022-12-07T01:24:22;17;14.2;9
45788;PMS7003;31492;54.856;26.318;2022-12-07T01:29:22;16.6;15;8.8
45788;PMS7003;31492;54.856;26.318;2022-12-07T01:34:14;15.6;14;9.8
45788;PMS7003;31492;54.856;26.318;2022-12-07T01:39:24;15.3;12.5;8.5
45788;PMS7003;31492;54.856;26.318;2022-12-07T01:44:16;14.2;12.8;9.6
45788;PMS7003;31492;54.856;26.318;2022-12-07T01:49:16;15.6;13.2;9.8
45788;PMS7003;31492;54.856;26.318;2022-12-07T01:54:14;15.8;14.4;9.4
45788;PMS7003;31492;54.856;26.318;2022-12-07T01:59:24;16.8;14.8;10
45788;PMS7003;31492;54.856;26.318;2022-12-07T02:04:14;16.4;14.4;10.2
45788;PMS7003;31492;54.856;26.318;2022-12-07T02:09:14;14.4;12;8.8
45788;PMS7003;31492;54.856;26.318;2022-12-07T02:14:14;13.2;11;7.8
45788;PMS7003;31492;54.856;26.318;2022-12-07T02:19:37;12.5;10.3;7.3
45788;PMS7003;31492;54.856;26.318;2022-12-07T02:24:27;12.6;11.6;8.8
45788;PMS7003;31492;54.856;26.318;2022-12-07T02:29:25;15.2;12.4;8
45788;PMS7003;31492;54.856;26.318;2022-12-07T02:34:28;14.8;12.4;9
45788;PMS7003;31492;54.856;26.318;2022-12-07T02:39:15;14;11.8;9
45788;PMS7003;31492;54.856;26.318;2022-12-07T02:44:32;13.3;11.5;7.8
45788;PMS7003;31492;54.856;26.318;2022-12-07T02:49:26;15.2;13.4;9.6
45788;PMS7003;31492;54.856;26.318;2022-12-07T02:54:24;12.2;10.2;8
45788;PMS7003;31492;54.856;26.318;2022-12-07T02:59:16;15;13;8.2
45788;PMS7003;31492;54.856;26.318;2022-12-07T03:04:18;13.5;11;7.5
45788;PMS7003;31492;54.856;26.318;2022-12-07T03:09:24;13.4;11;8.6
45788;PMS7003;31492;54.856;26.318;2022-12-07T03:14:25;15.8;12;9
45788;PMS7003;31492;54.856;26.318;2022-12-07T03:19:26;12;10.6;7.4
45788;PMS7003;31492;54.856;26.318;2022-12-07T03:24:33;15.5;12.5;8
45788;PMS7003;31492;54.856;26.318;2022-12-07T03:29:17;11.8;10.8;7.6
45788;PMS7003;31492;54.856;26.318;2022-12-07T03:34:16;12.6;10.6;7.2
45788;PMS7003;31492;54.856;26.318;2022-12-07T03:39:25;11.4;9.6;7.4
45788;PMS7003;31492;54.856;26.318;2022-12-07T03:44:14;12.5;9.5;7.5
45788;PMS7003;31492;54.856;26.318;2022-12-07T03:49:16;12.2;11.6;8
45788;PMS7003;31492;54.856;26.318;2022-12-07T03:54:33;12;10.6;6.6
45788;PMS7003;31492;54.856;26.318;2022-12-07T03:59:26;12;9.2;7.2
45788;PMS7003;31492;54.856;26.318;2022-12-07T04:04:14;12.3;10.5;7
45788;PMS7003;31492;54.856;26.318;2022-12-07T04:09:14;13;11;7.4
45788;PMS7003;31492;54.856;26.318;2022-12-07T04:14:24;12.2;10.4;7
45788;PMS7003;31492;54.856;26.318;2022-12-07T04:19:25;11.6;11.2;7.6
45788;PMS7003;31492;54.856;26.318;2022-12-07T04:24:14;12.6;11;7.4
45788;PMS7003;31492;54.856;26.318;2022-12-07T04:29:22;12.8;11.3;8.3
45788;PMS7003;31492;54.856;26.318;2022-12-07T04:34:14;12.6;10.8;7.6
45788;PMS7003;31492;54.856;26.318;2022-12-07T04:39:17;13;11.2;8.2
45788;PMS7003;31492;54.856;26.318;2022-12-07T04:44:24;12.2;10.2;6.8
45788;PMS7003;31492;54.856;26.318;2022-12-07T04:49:22;20;16.8;11.3
45788;PMS7003;31492;54.856;26.318;2022-12-07T04:54:14;11.6;10.4;7.4
45788;PMS7003;31492;54.856;26.318;2022-12-07T04:59:22;13.2;12.2;9.2
45788;PMS7003;31492;54.856;26.318;2022-12-07T05:04:24;13.8;11.4;8.4
45788;PMS7003;31492;54.856;26.318;2022-12-07T05:09:24;12;11.3;8.3
45788;PMS7003;31492;54.856;26.318;2022-12-07T05:14:22;15.8;13;9.6
45788;PMS7003;31492;54.856;26.318;2022-12-07T05:19:26;24;22;14.2
45788;PMS7003;31492;54.856;26.318;2022-12-07T05:24:22;24.2;20.8;14.6
45788;PMS7003;31492;54.856;26.318;2022-12-07T05:29:15;69.5;56.3;35.5
45788;PMS7003;31492;54.856;26.318;2022-12-07T05:34:14;27;23.2;15.2
45788;PMS7003;31492;54.856;26.318;2022-12-07T05:39:14;21.8;19.8;14
45788;PMS7003;31492;54.856;26.318;2022-12-07T05:44:14;47.6;42;27.8
45788;PMS7003;31492;54.856;26.318;2022-12-07T05:49:14;46.8;37;25.3
45788;PMS7003;31492;54.856;26.318;2022-12-07T05:54:24;34.8;29;18.2
45788;PMS7003;31492;54.856;26.318;2022-12-07T05:59:24;22;18.2;12.2
45788;PMS7003;31492;54.856;26.318;2022-12-07T06:04:14;36.6;31;21.6
45788;PMS7003;31492;54.856;26.318;2022-12-07T06:09:14;30.2;24.6;17.2
45788;PMS7003;31492;54.856;26.318;2022-12-07T06:14:30;31.8;27;18
45788;PMS7003;31492;54.856;26.318;2022-12-07T06:19:24;33.2;25.6;17.2
45788;PMS7003;31492;54.856;26.318;2022-12-07T06:24:34;31;26.8;17.8
45788;PMS7003;31492;54.856;26.318;2022-12-07T06:29:22;30.4;25;16.6
45788;PMS7003;31492;54.856;26.318;2022-12-07T06:34:25;29.8;26.8;17.8
45788;PMS7003;31492;54.856;26.318;2022-12-07T06:39:14;23.8;21.6;15
45788;PMS7003;31492;54.856;26.318;2022-12-07T06:44:24;24.8;20.8;15
45788;PMS7003;31492;54.856;26.318;2022-12-07T06:49:24;22.4;20.2;13
45788;PMS7003;31492;54.856;26.318;2022-12-07T06:54:15;22.3;18.5;14.3
45788;PMS7003;31492;54.856;26.318;2022-12-07T06:59:14;23.2;20.2;15.2
45788;PMS7003;31492;54.856;26.318;2022-12-07T07:04:32;23.8;21;15.8
45788;PMS7003;31492;54.856;26.318;2022-12-07T07:09:14;17;14.6;10.4
45788;PMS7003;31492;54.856;26.318;2022-12-07T07:14:24;17.5;14.5;10
45788;PMS7003;31492;54.856;26.318;2022-12-07T07:19:22;18.2;16.4;11.6
45788;PMS7003;31492;54.856;26.318;2022-12-07T07:24:14;20.8;19.6;14.2
45788;PMS7003;31492;54.856;26.318;2022-12-07T07:29:14;17;15.2;10
45788;PMS7003;31492;54.856;26.318;2022-12-07T07:34:48;14.8;13;10
45788;PMS7003;31492;54.856;26.318;2022-12-07T07:39:14;16.4;14.2;10
45788;PMS7003;31492;54.856;26.318;2022-12-07T07:44:14;13.6;12.6;9.8
45788;PMS7003;31492;54.856;26.318;2022-12-07T07:49:14;18.8;15.6;11
45788;PMS7003;31492;54.856;26.318;2022-12-07T07:54:14;15.6;13.8;9.8
45788;PMS7003;31492;54.856;26.318;2022-12-07T07:59:14;16.8;14.3;10.5
45788;PMS7003;31492;54.856;26.318;2022-12-07T08:04:24;13.4;12.6;10
45788;PMS7003;31492;54.856;26.318;2022-12-07T08:09:14;12.2;12.2;9.8
45788;PMS7003;31492;54.856;26.318;2022-12-07T08:14:22;15.4;12;8.4
45788;PMS7003;31492;54.856;26.318;2022-12-07T08:19:24;16.3;12.5;9.3
45788;PMS7003;31492;54.856;26.318;2022-12-07T08:24:14;13.8;12.6;9.4
45788;PMS7003;31492;54.856;26.318;2022-12-07T08:29:24;15.4;13.8;10
45788;PMS7003;31492;54.856;26.318;2022-12-07T08:34:14;13;11.6;8.6
45788;PMS7003;31492;54.856;26.318;2022-12-07T08:39:14;14.8;12.3;9.3
45788;PMS7003;31492;54.856;26.318;2022-12-07T08:44:14;13.6;12.6;9.6
45788;PMS7003;31492;54.856;26.318;2022-12-07T08:49:48;11.4;10.2;8.4
45788;PMS7003;31492;54.856;26.318;2022-12-07T08:54:15;11.6;10.6;8
45788;PMS7003;31492;54.856;26.318;2022-12-07T08:59:14;12.5;11.8;8.5
45788;PMS7003;31492;54.856;26.318;2022-12-07T09:04:24;12.6;12;9
45788;PMS7003;31492;54.856;26.318;2022-12-07T09:09:22;13;11;8.6
45788;PMS7003;31492;54.856;26.318;2022-12-07T09:14:14;13;11.4;8.6
45788;PMS7003;31492;54.856;26.318;2022-12-07T09:19:24;11.3;10.5;8.3
45788;PMS7003;31492;54.856;26.318;2022-12-07T09:24:32;11;10.4;8
45788;PMS7003;31492;54.856;26.318;2022-12-07T09:29:14;12.4;11.4;8.8
45788;PMS7003;31492;54.856;26.318;2022-12-07T09:34:14;13.6;12;9.6
45788;PMS7003;31492;54.856;26.318;2022-12-07T09:39:14;13.2;10.8;8.4
45788;PMS7003;31492;54.856;26.318;2022-12-07T09:44:26;13.5;12;8
45788;PMS7003;31492;54.856;26.318;2022-12-07T09:49:16;13;12.2;9.6
45788;PMS7003;31492;54.856;26.318;2022-12-07T09:54:15;13;10.6;8
45788;PMS7003;31492;54.856;26.318;2022-12-07T09:59:36;13;11.6;8.2
45788;PMS7003;31492;54.856;26.318;2022-12-07T10:04:24;12.5;12;9
45788;PMS7003;31492;54.856;26.318;2022-12-07T10:09:15;11;9.4;6.8
45788;PMS7003;31492;54.856;26.318;2022-12-07T10:14:22;12.4;10.2;7.2
45788;PMS7003;31492;54.856;26.318;2022-12-07T10:19:34;13;11;8.2
45788;PMS7003;31492;54.856;26.318;2022-12-07T10:24:24;15;12.3;8.8
45788;PMS7003;31492;54.856;26.318;2022-12-07T10:29:15;12.4;10.8;8.6
45788;PMS7003;31492;54.856;26.318;2022-12-07T10:34:20;11.2;10.4;7.6
45788;PMS7003;31492;54.856;26.318;2022-12-07T10:39:45;12.8;11.2;7.8
45788;PMS7003;31492;54.856;26.318;2022-12-07T10:44:19;12.8;10.8;8.5
45788;PMS7003;31492;54.856;26.318;2022-12-07T10:49:21;12.4;10.2;7.8
45788;PMS7003;31492;54.856;26.318;2022-12-07T10:54:48;17.8;15.2;11.6
45788;PMS7003;31492;54.856;26.318;2022-12-07T10:59:31;13;11.2;8.2
45788;PMS7003;31492;54.856;26.318;2022-12-07T11:04:17;12.8;11.8;9
45788;PMS7003;31492;54.856;26.318;2022-12-07T11:09:29;13;11.2;9.2
45788;PMS7003;31492;54.856;26.318;2022-12-07T11:14:16;12.6;11.2;8.6
45788;PMS7003;31492;54.856;26.318;2022-12-07T11:19:28;11;10.4;8
45788;PMS7003;31492;54.856;26.318;2022-12-07T11:24:15;15.8;14;11
45788;PMS7003;31492;54.856;26.318;2022-12-07T11:29:28;13.8;12.5;8.8
45788;PMS7003;31492;54.856;26.318;2022-12-07T11:34:26;10.6;9.8;7.2
45788;PMS7003;31492;54.856;26.318;2022-12-07T11:39:37;17.6;14;11.4
45788;PMS7003;31492;54.856;26.318;2022-12-07T11:44:26;13.2;11;8.4
45788;PMS7003;31492;54.856;26.318;2022-12-07T11:49:26;12.8;12.3;10.3
45788;PMS7003;31492;54.856;26.318;2022-12-07T11:54:15;13.6;12.4;10
45788;PMS7003;31492;54.856;26.318;2022-12-07T11:59:25;12.6;11.2;9
45788;PMS7003;31492;54.856;26.318;2022-12-07T12:04:32;12.2;11;8.8
45788;PMS7003;31492;54.856;26.318;2022-12-07T12:09:15;15;14.8;11.3
45788;PMS7003;31492;54.856;26.318;2022-12-07T12:14:20;15.8;13.4;10.8
45788;PMS7003;31492;54.856;26.318;2022-12-07T12:19:24;16;14.8;10.2
45788;PMS7003;31492;54.856;26.318;2022-12-07T12:24:23;16.6;13.2;10.2
45788;PMS7003;31492;54.856;26.318;2022-12-07T12:29:26;17.3;15.8;12.3
45788;PMS7003;31492;54.856;26.318;2022-12-07T12:34:31;19.2;16.4;11.6
45788;PMS7003;31492;54.856;26.318;2022-12-07T12:39:36;20.4;19.2;14
45788;PMS7003;31492;54.856;26.318;2022-12-07T12:44:38;22.6;20.6;15
45788;PMS7003;31492;54.856;26.318;2022-12-07T12:49:36;18;16.8;11.8
45788;PMS7003;31492;54.856;26.318;2022-12-07T12:54:18;18.2;16.2;12.2
45788;PMS7003;31492;54.856;26.318;2022-12-07T12:59:26;20.2;16.6;12.2
45788;PMS7003;31492;54.856;26.318;2022-12-07T13:04:38;20.4;18.4;13.8
45788;PMS7003;31492;54.856;26.318;2022-12-07T13:09:23;25.4;23.4;17.4
45788;PMS7003;31492;54.856;26.318;2022-12-07T13:14:57;19.5;16.5;11.8
45788;PMS7003;31492;54.856;26.318;2022-12-07T13:20:39;17.6;16.4;11.8
45788;PMS7003;31492;54.856;26.318;2022-12-07T13:24:24;21.2;16.4;12.4
45788;PMS7003;31492;54.856;26.318;2022-12-07T13:29:25;19.8;16.6;12.6
45788;PMS7003;31492;54.856;26.318;2022-12-07T13:34:31;17.5;14;11.3
45788;PMS7003;31492;54.856;26.318;2022-12-07T13:39:18;18.2;16.2;12.8
45788;PMS7003;31492;54.856;26.318;2022-12-07T13:44:39;18.6;15.8;11.8
45788;PMS7003;31492;54.856;26.318;2022-12-07T13:49:16;18.2;17;12.4
45788;PMS7003;31492;54.856;26.318;2022-12-07T13:54:43;17.5;15.8;11
45788;PMS7003;31492;54.856;26.318;2022-12-07T13:59:16;17.8;16.2;11.4
45788;PMS7003;31492;54.856;26.318;2022-12-07T14:04:16;19.2;16.6;12
45788;PMS7003;31492;54.856;26.318;2022-12-07T14:09:25;19.8;18.2;13.4
45788;PMS7003;31492;54.856;26.318;2022-12-07T14:14:26;19.3;15.8;11.8
45788;PMS7003;31492;54.856;26.318;2022-12-07T14:19:41;17;15.8;11
45788;PMS7003;31492;54.856;26.318;2022-12-07T14:24:15;17.8;15.6;11
45788;PMS7003;31492;54.856;26.318;2022-12-07T14:29:30;17.4;14.8;11.2
45788;PMS7003;31492;54.856;26.318;2022-12-07T14:34:14;14.3;12.8;10.3
45788;PMS7003;31492;54.856;26.318;2022-12-07T14:39:24;16.8;15.2;10.6
45788;PMS7003;31492;54.856;26.318;2022-12-07T14:44:16;16.2;14.2;10.2
45788;PMS7003;31492;54.856;26.318;2022-12-07T14:49:24;19;14.6;10.8
45788;PMS7003;31492;54.856;26.318;2022-12-07T14:54:16;14;12.8;9.6
45788;PMS7003;31492;54.856;26.318;2022-12-07T14:59:24;15.3;13;10
45788;PMS7003;31492;54.856;26.318;2022-12-07T15:04:15;15.2;13.6;9.8
45788;PMS7003;31492;54.856;26.318;2022-12-07T15:09:24;13.6;13.2;9.4
45788;PMS7003;31492;54.856;26.318;2022-12-07T15:14:14;16;14;11
45788;PMS7003;31492;54.856;26.318;2022-12-07T15:19:16;13.5;12;9.3
45788;PMS7003;31492;54.856;26.318;2022-12-07T15:24:25;14.2;12.2;9.2
45788;PMS7003;31492;54.856;26.318;2022-12-07T15:29:14;16.2;13.4;10
45788;PMS7003;31492;54.856;26.318;2022-12-07T15:34:14;17.6;14.6;10.6
45788;PMS7003;31492;54.856;26.318;2022-12-07T15:39:14;16;14.3;10.8
45788;PMS7003;31492;54.856;26.318;2022-12-07T15:44:15;16.4;14.4;10.2
45788;PMS7003;31492;54.856;26.318;2022-12-07T15:49:22;16.2;14.4;9.8
45788;PMS7003;31492;54.856;26.318;2022-12-07T15:54:16;14.4;12.4;10
45788;PMS7003;31492;54.856;26.318;2022-12-07T15:59:25;16.8;14.3;10.3
45788;PMS7003;31492;54.856;26.318;2022-12-07T16:04:23;13.6;12.2;9.4
45788;PMS7003;31492;54.856;26.318;2022-12-07T16:09:25;14.8;13.2;10
45788;PMS7003;31492;54.856;26.318;2022-12-07T16:14:25;15;13;11
45788;PMS7003;31492;54.856;26.318;2022-12-07T16:19:35;15.3;12.5;10
45788;PMS7003;31492;54.856;26.318;2022-12-07T16:24:15;11.6;9.6;7
45788;PMS7003;31492;54.856;26.318;2022-12-07T16:29:23;15.2;12.2;9.8
45788;PMS7003;31492;54.856;26.318;2022-12-07T16:34:35;13.8;10.8;8.6
45788;PMS7003;31492;54.856;26.318;2022-12-07T16:39:59;15.2;13.6;9.8
45788;PMS7003;31492;54.856;26.318;2022-12-07T16:44:25;12.8;11.3;8.8
45788;PMS7003;31492;54.856;26.318;2022-12-07T16:49:35;11.6;10.4;8
45788;PMS7003;31492;54.856;26.318;2022-12-07T16:54:23;13.4;11;8.8
45788;PMS7003;31492;54.856;26.318;2022-12-07T16:59:15;11.8;10.8;7.4
45788;PMS7003;31492;54.856;26.318;2022-12-07T17:04:33;12.5;9.5;6.8
45788;PMS7003;31492;54.856;26.318;2022-12-07T17:09:35;12;10.4;7.8
45788;PMS7003;31492;54.856;26.318;2022-12-07T17:14:34;11.6;10.4;7.8
45788;PMS7003;31492;54.856;26.318;2022-12-07T17:19:15;10.4;10.2;7.8
45788;PMS7003;31492;54.856;26.318;2022-12-07T17:24:25;11.3;10.3;8.3
45788;PMS7003;31492;54.856;26.318;2022-12-07T17:29:16;11;9.6;7.4
45788;PMS7003;31492;54.856;26.318;2022-12-07T17:34:25;12.4;11.2;8.8
45788;PMS7003;31492;54.856;26.318;2022-12-07T17:39:16;12;10.4;8.8
45788;PMS7003;31492;54.856;26.318;2022-12-07T17:44:16;12.8;9.8;7.3
45788;PMS7003;31492;54.856;26.318;2022-12-07T17:49:35;12;11.2;8.6
45788;PMS7003;31492;54.856;26.318;2022-12-07T17:54:15;14.6;11.2;8.8
45788;PMS7003;31492;54.856;26.318;2022-12-07T17:59:23;12.6;11.8;8
45788;PMS7003;31492;54.856;26.318;2022-12-07T18:04:15;11.8;10.5;7.8
45788;PMS7003;31492;54.856;26.318;2022-12-07T18:09:15;12.2;11;7.6
45788;PMS7003;31492;54.856;26.318;2022-12-07T18:14:23;13.6;11.8;8.4
45788;PMS7003;31492;54.856;26.318;2022-12-07T18:19:15;12.4;10.6;7.4
45788;PMS7003;31492;54.856;26.318;2022-12-07T18:24:15;11;9.8;8.2
45788;PMS7003;31492;54.856;26.318;2022-12-07T18:29:25;11;10.3;7
45788;PMS7003;31492;54.856;26.318;2022-12-07T18:34:35;12.2;10;7.4
45788;PMS7003;31492;54.856;26.318;2022-12-07T18:39:25;12.4;9.6;7.2
45788;PMS7003;31492;54.856;26.318;2022-12-07T18:44:15;12.8;12.2;8.2
45788;PMS7003;31492;54.856;26.318;2022-12-07T18:49:25;10.8;9.3;7.5
45788;PMS7003;31492;54.856;26.318;2022-12-07T18:54:25;14;12.4;7.8
45788;PMS7003;31492;54.856;26.318;2022-12-07T18:59:48;11;10.4;7.6
45788;PMS7003;31492;54.856;26.318;2022-12-07T19:04:25;11.8;11;7
45788;PMS7003;31492;54.856;26.318;2022-12-07T19:09:25;13.5;11;8.5
45788;PMS7003;31492;54.856;26.318;2022-12-07T19:14:26;12;9.6;7.8
45788;PMS7003;31492;54.856;26.318;2022-12-07T19:19:37;11;10;7
45788;PMS7003;31492;54.856;26.318;2022-12-07T19:24:48;13;10.8;7.6
45788;PMS7003;31492;54.856;26.318;2022-12-07T19:29:26;13;10.3;7.5
45788;PMS7003;31492;54.856;26.318;2022-12-07T19:34:17;10.4;9;7.2
45788;PMS7003;31492;54.856;26.318;2022-12-07T19:39:35;10.8;10.2;7.6
45788;PMS7003;31492;54.856;26.318;2022-12-07T19:44:15;10.6;10.2;7.4
45788;PMS7003;31492;54.856;26.318;2022-12-07T19:49:23;8.5;7.3;6
45788;PMS7003;31492;54.856;26.318;2022-12-07T19:54:16;9;8.2;6.2
45788;PMS7003;31492;54.856;26.318;2022-12-07T19:59:25;8;6.6;5
45788;PMS7003;31492;54.856;26.318;2022-12-07T20:04:15;8.8;7.8;6
45788;PMS7003;31492;54.856;26.318;2022-12-07T20:09:15;7.3;6.5;5.3
45788;PMS7003;31492;54.856;26.318;2022-12-07T20:14:25;6.8;5.6;4.2
45788;PMS7003;31492;54.856;26.318;2022-12-07T20:19:25;5;4.8;3.2
45788;PMS7003;31492;54.856;26.318;2022-12-07T20:24:33;7;5;3.2
45788;PMS7003;31492;54.856;26.318;2022-12-07T20:29:25;6.8;5.5;3.8
45788;PMS7003;31492;54.856;26.318;2022-12-07T20:34:25;4.6;4;3
45788;PMS7003;31492;54.856;26.318;2022-12-07T20:39:25;4.8;3.6;2.4
45788;PMS7003;31492;54.856;26.318;2022-12-07T20:44:15;5.6;4;2.6
45788;PMS7003;31492;54.856;26.318;2022-12-07T20:49:15;4.8;4;3.5
45788;PMS7003;31492;54.856;26.318;2022-12-07T20:54:35;3.8;3;2.4
45788;PMS7003;31492;54.856;26.318;2022-12-07T20:59:15;5.8;3.8;2.8
45788;PMS7003;31492;54.856;26.318;2022-12-07T21:04:16;3.2;2.8;2.2
45788;PMS7003;31492;54.856;26.318;2022-12-07T21:09:15;4.4;3.8;3
45788;PMS7003;31492;54.856;26.318;2022-12-07T21:14:25;5.5;4;2.8
45788;PMS7003;31492;54.856;26.318;2022-12-07T21:19:27;5.2;3.4;2.4
45788;PMS7003;31492;54.856;26.318;2022-12-07T21:24:15;4;3.2;2.6
45788;PMS7003;31492;54.856;26.318;2022-12-07T21:29:23;4.8;3.6;2.6
45788;PMS7003;31492;54.856;26.318;2022-12-07T21:34:25;5;4;2.5
45788;PMS7003;31492;54.856;26.318;2022-12-07T21:39:25;4.2;3;2.6
